sensor_id;sensor_type;location;lat;lon;timestamp;temperature;humidity
16402;DHT22;8310;44.626;11.176;2022-07-24T00:02:21;31.10;33.40
16402;DHT22;8310;44.626;11.176;2022-07-24T00:04:49;31.00;33.40
16402;DHT22;8310;44.626;11.176;2022-07-24T00:07:16;30.80;33.30
16402;DHT22;8310;44.626;11.176;2022-07-24T00:09:44;30.70;33.30
16402;DHT22;8310;44.626;11.176;2022-07-24T00:12:11;30.70;33.40
16402;DHT22;8310;44.626;11.176;2022-07-24T00:14:41;30.60;33.50
16402;DHT22;8310;44.626;11.176;2022-07-24T00:17:08;30.60;33.60
16402;DHT22;8310;44.626;11.176;2022-07-24T00:19:35;30.60;33.60
16402;DHT22;8310;44.626;11.176;2022-07-24T00:22:07;30.60;33.60
16402;DHT22;8310;44.626;11.176;2022-07-24T00:24:34;30.60;33.70
16402;DHT22;8310;44.626;11.176;2022-07-24T00:27:02;30.60;33.70
16402;DHT22;8310;44.626;11.176;2022-07-24T00:29:30;30.60;33.70
16402;DHT22;8310;44.626;11.176;2022-07-24T00:31:59;30.60;33.80
16402;DHT22;8310;44.626;11.176;2022-07-24T00:34:27;30.50;33.70
16402;DHT22;8310;44.626;11.176;2022-07-24T00:36:54;30.50;33.90
16402;DHT22;8310;44.626;11.176;2022-07-24T00:39:22;30.40;33.60
16402;DHT22;8310;44.626;11.176;2022-07-24T00:41:49;30.40;33.70
16402;DHT22;8310;44.626;11.176;2022-07-24T00:44:19;30.30;33.70
16402;DHT22;8310;44.626;11.176;2022-07-24T00:46:47;30.20;33.70
16402;DHT22;8310;44.626;11.176;2022-07-24T00:49:18;30.20;33.70
16402;DHT22;8310;44.626;11.176;2022-07-24T00:51:48;30.20;33.80
16402;DHT22;8310;44.626;11.176;2022-07-24T00:54:16;30.20;33.80
16402;DHT22;8310;44.626;11.176;2022-07-24T00:56:46;30.10;33.80
16402;DHT22;8310;44.626;11.176;2022-07-24T00:59:15;30.10;33.80
16402;DHT22;8310;44.626;11.176;2022-07-24T01:01:42;30.10;33.80
16402;DHT22;8310;44.626;11.176;2022-07-24T01:04:10;30.10;33.80
16402;DHT22;8310;44.626;11.176;2022-07-24T01:06:40;30.00;33.80
16402;DHT22;8310;44.626;11.176;2022-07-24T01:09:07;30.00;33.80
16402;DHT22;8310;44.626;11.176;2022-07-24T01:11:35;29.90;33.80
16402;DHT22;8310;44.626;11.176;2022-07-24T01:14:03;29.80;33.80
16402;DHT22;8310;44.626;11.176;2022-07-24T01:16:32;29.70;33.80
16402;DHT22;8310;44.626;11.176;2022-07-24T01:18:59;29.70;33.80
16402;DHT22;8310;44.626;11.176;2022-07-24T01:21:29;29.60;33.80
16402;DHT22;8310;44.626;11.176;2022-07-24T01:23:56;29.60;33.80
16402;DHT22;8310;44.626;11.176;2022-07-24T01:26:24;29.50;33.80
16402;DHT22;8310;44.626;11.176;2022-07-24T01:28:51;29.40;33.70
16402;DHT22;8310;44.626;11.176;2022-07-24T01:31:19;29.30;33.80
16402;DHT22;8310;44.626;11.176;2022-07-24T01:33:46;29.30;33.80
16402;DHT22;8310;44.626;11.176;2022-07-24T01:36:14;29.20;33.80
16402;DHT22;8310;44.626;11.176;2022-07-24T01:38:43;29.20;33.90
16402;DHT22;8310;44.626;11.176;2022-07-24T01:41:11;29.20;33.90
16402;DHT22;8310;44.626;11.176;2022-07-24T01:43:38;29.20;33.90
16402;DHT22;8310;44.626;11.176;2022-07-24T01:46:07;29.10;33.80
16402;DHT22;8310;44.626;11.176;2022-07-24T01:48:35;29.10;34.00
16402;DHT22;8310;44.626;11.176;2022-07-24T01:51:03;29.00;34.00
16402;DHT22;8310;44.626;11.176;2022-07-24T01:53:30;29.10;34.10
16402;DHT22;8310;44.626;11.176;2022-07-24T01:55:59;29.10;34.10
16402;DHT22;8310;44.626;11.176;2022-07-24T01:58:26;29.10;34.10
16402;DHT22;8310;44.626;11.176;2022-07-24T02:00:54;29.00;33.90
16402;DHT22;8310;44.626;11.176;2022-07-24T02:03:22;29.00;33.90
16402;DHT22;8310;44.626;11.176;2022-07-24T02:05:50;28.90;33.90
16402;DHT22;8310;44.626;11.176;2022-07-24T02:08:17;28.80;33.90
16402;DHT22;8310;44.626;11.176;2022-07-24T02:10:45;28.70;34.00
16402;DHT22;8310;44.626;11.176;2022-07-24T02:13:14;28.80;34.10
16402;DHT22;8310;44.626;11.176;2022-07-24T02:15:42;28.70;34.10
16402;DHT22;8310;44.626;11.176;2022-07-24T02:18:09;28.70;34.20
16402;DHT22;8310;44.626;11.176;2022-07-24T02:20:37;28.70;34.20
16402;DHT22;8310;44.626;11.176;2022-07-24T02:23:04;28.70;34.30
16402;DHT22;8310;44.626;11.176;2022-07-24T02:25:32;28.70;34.30
16402;DHT22;8310;44.626;11.176;2022-07-24T02:27:59;28.70;34.30
16402;DHT22;8310;44.626;11.176;2022-07-24T02:30:29;28.70;34.30
16402;DHT22;8310;44.626;11.176;2022-07-24T02:32:56;28.60;34.20
16402;DHT22;8310;44.626;11.176;2022-07-24T02:35:24;28.60;34.20
16402;DHT22;8310;44.626;11.176;2022-07-24T02:37:51;28.50;34.20
16402;DHT22;8310;44.626;11.176;2022-07-24T02:40:19;28.50;34.20
16402;DHT22;8310;44.626;11.176;2022-07-24T02:42:46;28.40;34.20
16402;DHT22;8310;44.626;11.176;2022-07-24T02:45:14;28.30;34.10
16402;DHT22;8310;44.626;11.176;2022-07-24T02:47:50;28.20;34.10
16402;DHT22;8310;44.626;11.176;2022-07-24T02:50:19;28.10;34.20
16402;DHT22;8310;44.626;11.176;2022-07-24T02:52:47;28.10;34.30
16402;DHT22;8310;44.626;11.176;2022-07-24T02:55:15;28.10;34.40
16402;DHT22;8310;44.626;11.176;2022-07-24T02:57:43;28.20;34.50
16402;DHT22;8310;44.626;11.176;2022-07-24T03:00:13;28.20;34.50
16402;DHT22;8310;44.626;11.176;2022-07-24T03:02:41;28.20;34.60
16402;DHT22;8310;44.626;11.176;2022-07-24T03:05:11;28.30;34.60
16402;DHT22;8310;44.626;11.176;2022-07-24T03:07:39;28.30;34.70
16402;DHT22;8310;44.626;11.176;2022-07-24T03:10:10;28.30;34.60
16402;DHT22;8310;44.626;11.176;2022-07-24T03:12:39;28.40;34.80
16402;DHT22;8310;44.626;11.176;2022-07-24T03:15:08;28.40;34.70
16402;DHT22;8310;44.626;11.176;2022-07-24T03:17:35;28.40;34.70
16402;DHT22;8310;44.626;11.176;2022-07-24T03:20:04;28.50;34.90
16402;DHT22;8310;44.626;11.176;2022-07-24T03:22:34;28.50;34.90
16402;DHT22;8310;44.626;11.176;2022-07-24T03:25:02;28.50;34.80
16402;DHT22;8310;44.626;11.176;2022-07-24T03:27:29;28.50;34.80
16402;DHT22;8310;44.626;11.176;2022-07-24T03:29:57;28.40;34.80
16402;DHT22;8310;44.626;11.176;2022-07-24T03:32:24;28.40;34.80
16402;DHT22;8310;44.626;11.176;2022-07-24T03:34:52;28.40;34.80
16402;DHT22;8310;44.626;11.176;2022-07-24T03:37:19;28.30;34.70
16402;DHT22;8310;44.626;11.176;2022-07-24T03:39:48;28.30;34.80
16402;DHT22;8310;44.626;11.176;2022-07-24T03:42:16;28.30;34.80
16402;DHT22;8310;44.626;11.176;2022-07-24T03:44:44;28.30;34.80
16402;DHT22;8310;44.626;11.176;2022-07-24T03:47:11;28.20;34.70
16402;DHT22;8310;44.626;11.176;2022-07-24T03:49:39;28.20;34.80
16402;DHT22;8310;44.626;11.176;2022-07-24T03:52:07;28.20;34.90
16402;DHT22;8310;44.626;11.176;2022-07-24T03:54:34;28.20;34.90
16402;DHT22;8310;44.626;11.176;2022-07-24T03:57:04;28.20;34.90
16402;DHT22;8310;44.626;11.176;2022-07-24T03:59:32;28.20;34.90
16402;DHT22;8310;44.626;11.176;2022-07-24T04:01:59;28.10;34.90
16402;DHT22;8310;44.626;11.176;2022-07-24T04:04:27;28.10;34.90
16402;DHT22;8310;44.626;11.176;2022-07-24T04:06:55;28.00;35.00
16402;DHT22;8310;44.626;11.176;2022-07-24T04:09:23;28.00;34.90
16402;DHT22;8310;44.626;11.176;2022-07-24T04:11:50;28.00;34.90
16402;DHT22;8310;44.626;11.176;2022-07-24T04:14:19;28.00;35.00
16402;DHT22;8310;44.626;11.176;2022-07-24T04:16:46;27.90;35.00
16402;DHT22;8310;44.626;11.176;2022-07-24T04:19:14;27.90;35.10
16402;DHT22;8310;44.626;11.176;2022-07-24T04:21:41;27.90;35.10
16402;DHT22;8310;44.626;11.176;2022-07-24T04:24:09;27.90;35.20
16402;DHT22;8310;44.626;11.176;2022-07-24T04:26:36;28.00;35.30
16402;DHT22;8310;44.626;11.176;2022-07-24T04:29:05;28.00;35.30
16402;DHT22;8310;44.626;11.176;2022-07-24T04:31:34;28.00;35.30
16402;DHT22;8310;44.626;11.176;2022-07-24T04:34:02;28.00;36.00
16402;DHT22;8310;44.626;11.176;2022-07-24T04:36:29;28.00;35.30
16402;DHT22;8310;44.626;11.176;2022-07-24T04:38:57;28.00;35.40
16402;DHT22;8310;44.626;11.176;2022-07-24T04:41:29;28.00;35.40
16402;DHT22;8310;44.626;11.176;2022-07-24T04:43:57;27.90;35.40
16402;DHT22;8310;44.626;11.176;2022-07-24T04:46:29;28.00;35.60
16402;DHT22;8310;44.626;11.176;2022-07-24T04:48:59;28.00;35.50
16402;DHT22;8310;44.626;11.176;2022-07-24T04:51:26;28.00;35.60
16402;DHT22;8310;44.626;11.176;2022-07-24T04:53:54;28.10;35.70
16402;DHT22;8310;44.626;11.176;2022-07-24T04:56:22;28.10;35.70
16402;DHT22;8310;44.626;11.176;2022-07-24T04:58:49;28.10;35.70
16402;DHT22;8310;44.626;11.176;2022-07-24T05:01:16;28.20;35.80
16402;DHT22;8310;44.626;11.176;2022-07-24T05:03:44;28.20;35.90
16402;DHT22;8310;44.626;11.176;2022-07-24T05:06:14;28.20;35.90
16402;DHT22;8310;44.626;11.176;2022-07-24T05:08:42;28.20;36.50
16402;DHT22;8310;44.626;11.176;2022-07-24T05:11:09;28.20;35.80
16402;DHT22;8310;44.626;11.176;2022-07-24T05:13:36;28.20;35.90
16402;DHT22;8310;44.626;11.176;2022-07-24T05:16:05;28.20;35.90
16402;DHT22;8310;44.626;11.176;2022-07-24T05:18:32;28.20;36.00
16402;DHT22;8310;44.626;11.176;2022-07-24T05:21:00;28.20;36.10
16402;DHT22;8310;44.626;11.176;2022-07-24T05:23:30;28.20;36.20
16402;DHT22;8310;44.626;11.176;2022-07-24T05:25:57;28.20;36.20
16402;DHT22;8310;44.626;11.176;2022-07-24T05:28:25;28.30;36.30
16402;DHT22;8310;44.626;11.176;2022-07-24T05:30:52;28.30;36.40
16402;DHT22;8310;44.626;11.176;2022-07-24T05:33:19;28.40;36.50
16402;DHT22;8310;44.626;11.176;2022-07-24T05:35:47;28.40;36.50
16402;DHT22;8310;44.626;11.176;2022-07-24T05:38:15;28.50;36.60
16402;DHT22;8310;44.626;11.176;2022-07-24T05:40:44;28.50;36.60
16402;DHT22;8310;44.626;11.176;2022-07-24T05:43:11;28.60;36.70
16402;DHT22;8310;44.626;11.176;2022-07-24T05:45:39;28.60;37.30
16402;DHT22;8310;44.626;11.176;2022-07-24T05:48:06;28.60;36.70
16402;DHT22;8310;44.626;11.176;2022-07-24T05:50:34;28.70;36.80
16402;DHT22;8310;44.626;11.176;2022-07-24T05:53:01;28.80;36.90
16402;DHT22;8310;44.626;11.176;2022-07-24T05:55:29;28.80;36.90
16402;DHT22;8310;44.626;11.176;2022-07-24T05:57:58;28.90;36.90
16402;DHT22;8310;44.626;11.176;2022-07-24T06:00:25;28.90;36.90
16402;DHT22;8310;44.626;11.176;2022-07-24T06:02:53;29.00;37.20
16402;DHT22;8310;44.626;11.176;2022-07-24T06:05:21;29.10;37.30
16402;DHT22;8310;44.626;11.176;2022-07-24T06:07:48;29.10;37.30
16402;DHT22;8310;44.626;11.176;2022-07-24T06:10:17;29.30;37.50
16402;DHT22;8310;44.626;11.176;2022-07-24T06:12:45;29.40;37.50
16402;DHT22;8310;44.626;11.176;2022-07-24T06:15:14;29.50;37.50
16402;DHT22;8310;44.626;11.176;2022-07-24T06:17:42;29.60;37.60
16402;DHT22;8310;44.626;11.176;2022-07-24T06:20:11;29.70;37.70
16402;DHT22;8310;44.626;11.176;2022-07-24T06:22:39;29.80;37.70
16402;DHT22;8310;44.626;11.176;2022-07-24T06:25:07;30.00;37.80
16402;DHT22;8310;44.626;11.176;2022-07-24T06:27:40;30.10;37.90
16402;DHT22;8310;44.626;11.176;2022-07-24T06:30:14;30.10;37.90
16402;DHT22;8310;44.626;11.176;2022-07-24T06:32:42;30.30;38.10
16402;DHT22;8310;44.626;11.176;2022-07-24T06:35:09;30.40;38.00
16402;DHT22;8310;44.626;11.176;2022-07-24T06:37:40;30.50;38.00
16402;DHT22;8310;44.626;11.176;2022-07-24T06:40:09;30.60;38.10
16402;DHT22;8310;44.626;11.176;2022-07-24T06:42:37;30.70;38.10
16402;DHT22;8310;44.626;11.176;2022-07-24T06:45:06;30.70;38.10
16402;DHT22;8310;44.626;11.176;2022-07-24T06:47:35;30.90;38.30
16402;DHT22;8310;44.626;11.176;2022-07-24T06:50:03;31.00;38.30
16402;DHT22;8310;44.626;11.176;2022-07-24T06:52:31;31.00;38.40
16402;DHT22;8310;44.626;11.176;2022-07-24T06:54:58;31.20;38.40
16402;DHT22;8310;44.626;11.176;2022-07-24T06:57:26;31.30;38.50
16402;DHT22;8310;44.626;11.176;2022-07-24T06:59:55;31.30;38.50
16402;DHT22;8310;44.626;11.176;2022-07-24T07:02:22;31.40;38.60
16402;DHT22;8310;44.626;11.176;2022-07-24T07:04:51;31.50;38.70
16402;DHT22;8310;44.626;11.176;2022-07-24T07:07:19;31.60;38.70
16402;DHT22;8310;44.626;11.176;2022-07-24T07:09:46;31.70;38.80
16402;DHT22;8310;44.626;11.176;2022-07-24T07:12:14;31.80;38.80
16402;DHT22;8310;44.626;11.176;2022-07-24T07:14:41;31.90;38.80
16402;DHT22;8310;44.626;11.176;2022-07-24T07:17:13;32.00;38.90
16402;DHT22;8310;44.626;11.176;2022-07-24T07:19:41;32.20;39.00
16402;DHT22;8310;44.626;11.176;2022-07-24T07:22:10;32.20;39.00
16402;DHT22;8310;44.626;11.176;2022-07-24T07:24:37;32.40;39.10
16402;DHT22;8310;44.626;11.176;2022-07-24T07:27:05;32.40;39.00
16402;DHT22;8310;44.626;11.176;2022-07-24T07:29:32;32.50;39.10
16402;DHT22;8310;44.626;11.176;2022-07-24T07:32:00;32.60;39.00
16402;DHT22;8310;44.626;11.176;2022-07-24T07:34:28;32.70;39.20
16402;DHT22;8310;44.626;11.176;2022-07-24T07:36:56;32.80;39.20
16402;DHT22;8310;44.626;11.176;2022-07-24T07:39:25;32.90;39.30
16402;DHT22;8310;44.626;11.176;2022-07-24T07:41:53;33.00;39.30
16402;DHT22;8310;44.626;11.176;2022-07-24T07:44:20;33.10;39.30
16402;DHT22;8310;44.626;11.176;2022-07-24T07:46:48;33.20;39.40
16402;DHT22;8310;44.626;11.176;2022-07-24T07:49:15;33.30;39.50
16402;DHT22;8310;44.626;11.176;2022-07-24T07:51:43;33.40;39.50
16402;DHT22;8310;44.626;11.176;2022-07-24T07:54:13;33.40;39.50
16402;DHT22;8310;44.626;11.176;2022-07-24T07:56:42;33.60;39.60
16402;DHT22;8310;44.626;11.176;2022-07-24T07:59:10;33.60;39.60
16402;DHT22;8310;44.626;11.176;2022-07-24T08:01:38;33.70;39.60
16402;DHT22;8310;44.626;11.176;2022-07-24T08:04:05;33.80;39.70
16402;DHT22;8310;44.626;11.176;2022-07-24T08:06:33;33.90;39.70
16402;DHT22;8310;44.626;11.176;2022-07-24T08:09:01;34.00;39.80
16402;DHT22;8310;44.626;11.176;2022-07-24T08:11:28;34.20;40.00
16402;DHT22;8310;44.626;11.176;2022-07-24T08:13:58;34.30;40.00
16402;DHT22;8310;44.626;11.176;2022-07-24T08:16:25;34.40;40.00
16402;DHT22;8310;44.626;11.176;2022-07-24T08:18:53;34.60;40.00
16402;DHT22;8310;44.626;11.176;2022-07-24T08:21:20;34.60;39.90
16402;DHT22;8310;44.626;11.176;2022-07-24T08:23:48;34.70;40.00
16402;DHT22;8310;44.626;11.176;2022-07-24T08:26:16;34.80;40.00
16402;DHT22;8310;44.626;11.176;2022-07-24T08:28:43;34.80;40.00
16402;DHT22;8310;44.626;11.176;2022-07-24T08:31:13;34.90;40.00
16402;DHT22;8310;44.626;11.176;2022-07-24T08:33:40;35.00;40.00
16402;DHT22;8310;44.626;11.176;2022-07-24T08:36:08;35.00;40.00
16402;DHT22;8310;44.626;11.176;2022-07-24T08:38:35;35.10;40.10
16402;DHT22;8310;44.626;11.176;2022-07-24T08:41:03;35.10;40.10
16402;DHT22;8310;44.626;11.176;2022-07-24T08:43:31;35.20;40.20
16402;DHT22;8310;44.626;11.176;2022-07-24T08:46:00;35.30;40.20
16402;DHT22;8310;44.626;11.176;2022-07-24T08:48:30;35.40;40.30
16402;DHT22;8310;44.626;11.176;2022-07-24T08:50:58;35.50;40.30
16402;DHT22;8310;44.626;11.176;2022-07-24T08:53:26;35.50;40.30
16402;DHT22;8310;44.626;11.176;2022-07-24T08:55:53;35.60;40.40
16402;DHT22;8310;44.626;11.176;2022-07-24T08:58:21;35.70;40.50
16402;DHT22;8310;44.626;11.176;2022-07-24T09:00:49;35.90;40.50
16402;DHT22;8310;44.626;11.176;2022-07-24T09:03:16;36.00;40.50
16402;DHT22;8310;44.626;11.176;2022-07-24T09:05:56;36.00;40.20
16402;DHT22;8310;44.626;11.176;2022-07-24T09:08:24;36.00;40.10
16402;DHT22;8310;44.626;11.176;2022-07-24T09:11:02;35.90;39.90
16402;DHT22;8310;44.626;11.176;2022-07-24T09:13:31;35.90;40.00
16402;DHT22;8310;44.626;11.176;2022-07-24T09:16:20;35.90;40.30
16402;DHT22;8310;44.626;11.176;2022-07-24T09:19:02;36.00;40.40
16402;DHT22;8310;44.626;11.176;2022-07-24T09:21:34;36.00;40.50
16402;DHT22;8310;44.626;11.176;2022-07-24T09:24:11;36.20;40.60
16402;DHT22;8310;44.626;11.176;2022-07-24T09:26:44;36.20;40.50
16402;DHT22;8310;44.626;11.176;2022-07-24T09:29:12;36.30;40.50
16402;DHT22;8310;44.626;11.176;2022-07-24T09:31:53;36.30;40.50
16402;DHT22;8310;44.626;11.176;2022-07-24T09:34:22;36.40;40.50
16402;DHT22;8310;44.626;11.176;2022-07-24T09:37:00;36.40;40.60
16402;DHT22;8310;44.626;11.176;2022-07-24T09:39:30;36.50;40.70
16402;DHT22;8310;44.626;11.176;2022-07-24T09:42:00;36.50;40.50
16402;DHT22;8310;44.626;11.176;2022-07-24T09:44:29;36.60;40.70
16402;DHT22;8310;44.626;11.176;2022-07-24T09:46:59;36.70;40.80
16402;DHT22;8310;44.626;11.176;2022-07-24T09:49:27;36.90;41.00
16402;DHT22;8310;44.626;11.176;2022-07-24T09:52:21;37.00;41.00
16402;DHT22;8310;44.626;11.176;2022-07-24T09:54:50;37.10;40.90
16402;DHT22;8310;44.626;11.176;2022-07-24T09:57:21;37.20;40.80
16402;DHT22;8310;44.626;11.176;2022-07-24T09:59:51;37.30;40.80
16402;DHT22;8310;44.626;11.176;2022-07-24T10:02:24;37.30;40.70
16402;DHT22;8310;44.626;11.176;2022-07-24T10:04:52;37.40;40.80
16402;DHT22;8310;44.626;11.176;2022-07-24T10:07:23;37.40;40.80
16402;DHT22;8310;44.626;11.176;2022-07-24T10:09:54;37.40;40.70
16402;DHT22;8310;44.626;11.176;2022-07-24T10:12:23;37.40;40.70
16402;DHT22;8310;44.626;11.176;2022-07-24T10:14:53;37.40;40.80
16402;DHT22;8310;44.626;11.176;2022-07-24T10:17:31;37.50;40.90
16402;DHT22;8310;44.626;11.176;2022-07-24T10:20:04;37.60;41.70
16402;DHT22;8310;44.626;11.176;2022-07-24T10:22:42;37.70;41.10
16402;DHT22;8310;44.626;11.176;2022-07-24T10:25:19;37.90;41.20
16402;DHT22;8310;44.626;11.176;2022-07-24T10:27:51;38.00;41.10
16402;DHT22;8310;44.626;11.176;2022-07-24T10:30:25;38.00;41.00
16402;DHT22;8310;44.626;11.176;2022-07-24T10:32:53;38.00;40.90
16402;DHT22;8310;44.626;11.176;2022-07-24T10:35:22;38.10;40.80
16402;DHT22;8310;44.626;11.176;2022-07-24T10:38:04;38.00;40.60
16402;DHT22;8310;44.626;11.176;2022-07-24T10:40:41;38.00;40.80
16402;DHT22;8310;44.626;11.176;2022-07-24T10:43:11;38.10;41.00
16402;DHT22;8310;44.626;11.176;2022-07-24T10:45:40;38.30;41.20
16402;DHT22;8310;44.626;11.176;2022-07-24T10:48:28;38.40;41.10
16402;DHT22;8310;44.626;11.176;2022-07-24T10:51:01;38.40;41.00
16402;DHT22;8310;44.626;11.176;2022-07-24T10:53:49;38.50;41.00
16402;DHT22;8310;44.626;11.176;2022-07-24T10:56:21;38.50;40.90
16402;DHT22;8310;44.626;11.176;2022-07-24T10:58:55;38.50;41.10
16402;DHT22;8310;44.626;11.176;2022-07-24T11:01:31;38.60;41.10
16402;DHT22;8310;44.626;11.176;2022-07-24T11:03:59;38.70;40.90
16402;DHT22;8310;44.626;11.176;2022-07-24T11:06:41;38.60;40.80
16402;DHT22;8310;44.626;11.176;2022-07-24T11:09:11;38.60;40.70
16402;DHT22;8310;44.626;11.176;2022-07-24T11:14:47;38.60;40.90
16402;DHT22;8310;44.626;11.176;2022-07-24T11:17:37;38.70;41.10
16402;DHT22;8310;44.626;11.176;2022-07-24T11:20:07;38.80;41.00
16402;DHT22;8310;44.626;11.176;2022-07-24T11:22:40;38.90;41.10
16402;DHT22;8310;44.626;11.176;2022-07-24T11:25:12;39.00;41.80
16402;DHT22;8310;44.626;11.176;2022-07-24T11:27:52;39.10;40.90
16402;DHT22;8310;44.626;11.176;2022-07-24T11:30:23;39.00;40.30
16402;DHT22;8310;44.626;11.176;2022-07-24T11:32:50;38.90;40.40
16402;DHT22;8310;44.626;11.176;2022-07-24T11:35:26;38.90;40.60
16402;DHT22;8310;44.626;11.176;2022-07-24T11:37:54;39.00;40.70
16402;DHT22;8310;44.626;11.176;2022-07-24T11:40:23;39.00;40.70
16402;DHT22;8310;44.626;11.176;2022-07-24T11:42:55;39.00;40.60
16402;DHT22;8310;44.626;11.176;2022-07-24T11:45:26;39.10;40.70
16402;DHT22;8310;44.626;11.176;2022-07-24T11:47:54;39.10;40.70
16402;DHT22;8310;44.626;11.176;2022-07-24T11:50:23;39.20;40.70
16402;DHT22;8310;44.626;11.176;2022-07-24T11:52:51;39.20;40.70
16402;DHT22;8310;44.626;11.176;2022-07-24T11:55:21;39.20;40.80
16402;DHT22;8310;44.626;11.176;2022-07-24T11:57:50;39.30;41.00
16402;DHT22;8310;44.626;11.176;2022-07-24T12:00:22;39.40;40.90
16402;DHT22;8310;44.626;11.176;2022-07-24T12:02:53;39.60;41.10
16402;DHT22;8310;44.626;11.176;2022-07-24T12:05:25;39.80;41.10
16402;DHT22;8310;44.626;11.176;2022-07-24T12:07:52;39.90;41.10
16402;DHT22;8310;44.626;11.176;2022-07-24T12:10:22;40.00;41.10
16402;DHT22;8310;44.626;11.176;2022-07-24T12:12:53;40.10;41.00
16402;DHT22;8310;44.626;11.176;2022-07-24T12:15:21;40.20;40.90
16402;DHT22;8310;44.626;11.176;2022-07-24T12:17:55;40.20;40.80
16402;DHT22;8310;44.626;11.176;2022-07-24T12:20:24;40.30;40.90
16402;DHT22;8310;44.626;11.176;2022-07-24T12:22:52;40.30;40.80
16402;DHT22;8310;44.626;11.176;2022-07-24T12:25:20;40.40;40.80
16402;DHT22;8310;44.626;11.176;2022-07-24T12:27:48;40.40;40.80
16402;DHT22;8310;44.626;11.176;2022-07-24T12:30:22;40.40;40.60
16402;DHT22;8310;44.626;11.176;2022-07-24T12:32:58;40.40;40.70
16402;DHT22;8310;44.626;11.176;2022-07-24T12:35:27;40.50;40.70
16402;DHT22;8310;44.626;11.176;2022-07-24T12:37:55;40.40;40.60
16402;DHT22;8310;44.626;11.176;2022-07-24T12:40:25;40.50;40.60
16402;DHT22;8310;44.626;11.176;2022-07-24T12:43:06;40.50;40.40
16402;DHT22;8310;44.626;11.176;2022-07-24T12:45:36;40.50;40.40
16402;DHT22;8310;44.626;11.176;2022-07-24T12:48:05;40.50;40.60
16402;DHT22;8310;44.626;11.176;2022-07-24T12:50:34;40.60;40.70
16402;DHT22;8310;44.626;11.176;2022-07-24T12:53:03;40.60;40.60
16402;DHT22;8310;44.626;11.176;2022-07-24T12:55:30;40.70;40.50
16402;DHT22;8310;44.626;11.176;2022-07-24T12:58:00;40.70;40.60
16402;DHT22;8310;44.626;11.176;2022-07-24T13:00:28;40.80;40.50
16402;DHT22;8310;44.626;11.176;2022-07-24T13:02:58;40.90;40.40
16402;DHT22;8310;44.626;11.176;2022-07-24T13:05:36;40.90;40.40
16402;DHT22;8310;44.626;11.176;2022-07-24T13:08:06;41.00;40.50
16402;DHT22;8310;44.626;11.176;2022-07-24T13:10:35;41.00;40.40
16402;DHT22;8310;44.626;11.176;2022-07-24T13:13:02;41.10;40.30
16402;DHT22;8310;44.626;11.176;2022-07-24T13:15:30;41.10;40.40
16402;DHT22;8310;44.626;11.176;2022-07-24T13:17:59;41.20;40.30
16402;DHT22;8310;44.626;11.176;2022-07-24T13:20:26;41.20;40.10
16402;DHT22;8310;44.626;11.176;2022-07-24T13:22:54;41.20;40.00
16402;DHT22;8310;44.626;11.176;2022-07-24T13:25:31;41.10;39.70
16402;DHT22;8310;44.626;11.176;2022-07-24T13:27:59;41.00;39.70
16402;DHT22;8310;44.626;11.176;2022-07-24T13:30:27;40.90;39.70
16402;DHT22;8310;44.626;11.176;2022-07-24T13:32:54;40.90;39.90
16402;DHT22;8310;44.626;11.176;2022-07-24T13:35:23;40.90;39.70
16402;DHT22;8310;44.626;11.176;2022-07-24T13:37:51;40.90;39.70
16402;DHT22;8310;44.626;11.176;2022-07-24T13:40:18;40.90;39.80
16402;DHT22;8310;44.626;11.176;2022-07-24T13:42:46;41.00;39.90
16402;DHT22;8310;44.626;11.176;2022-07-24T13:45:14;41.10;39.90
16402;DHT22;8310;44.626;11.176;2022-07-24T13:47:41;41.10;39.90
16402;DHT22;8310;44.626;11.176;2022-07-24T13:50:09;41.10;40.00
16402;DHT22;8310;44.626;11.176;2022-07-24T13:52:38;41.20;40.00
16402;DHT22;8310;44.626;11.176;2022-07-24T13:55:08;41.30;39.90
16402;DHT22;8310;44.626;11.176;2022-07-24T13:57:36;41.40;39.90
16402;DHT22;8310;44.626;11.176;2022-07-24T14:00:05;41.40;39.80
16402;DHT22;8310;44.626;11.176;2022-07-24T14:02:33;41.50;39.80
16402;DHT22;8310;44.626;11.176;2022-07-24T14:05:00;41.50;39.70
16402;DHT22;8310;44.626;11.176;2022-07-24T14:07:27;41.50;39.50
16402;DHT22;8310;44.626;11.176;2022-07-24T14:09:56;41.40;39.40
16402;DHT22;8310;44.626;11.176;2022-07-24T14:12:23;41.40;39.30
16402;DHT22;8310;44.626;11.176;2022-07-24T14:14:52;41.30;39.30
16402;DHT22;8310;44.626;11.176;2022-07-24T14:17:19;41.30;39.40
16402;DHT22;8310;44.626;11.176;2022-07-24T14:19:47;41.30;39.40
16402;DHT22;8310;44.626;11.176;2022-07-24T14:22:14;41.30;39.40
16402;DHT22;8310;44.626;11.176;2022-07-24T14:24:43;41.30;39.40
16402;DHT22;8310;44.626;11.176;2022-07-24T14:27:11;41.40;39.40
16402;DHT22;8310;44.626;11.176;2022-07-24T14:29:39;41.50;39.50
16402;DHT22;8310;44.626;11.176;2022-07-24T14:32:07;41.50;39.40
16402;DHT22;8310;44.626;11.176;2022-07-24T14:34:35;41.50;39.30
16402;DHT22;8310;44.626;11.176;2022-07-24T14:37:02;41.50;39.30
16402;DHT22;8310;44.626;11.176;2022-07-24T14:39:30;41.60;39.90
16402;DHT22;8310;44.626;11.176;2022-07-24T14:41:57;41.60;39.20
16402;DHT22;8310;44.626;11.176;2022-07-24T14:44:26;41.50;39.10
16402;DHT22;8310;44.626;11.176;2022-07-24T14:46:53;41.50;39.20
16402;DHT22;8310;44.626;11.176;2022-07-24T14:49:21;41.60;39.20
16402;DHT22;8310;44.626;11.176;2022-07-24T14:51:49;41.60;39.10
16402;DHT22;8310;44.626;11.176;2022-07-24T14:54:16;41.60;39.00
16402;DHT22;8310;44.626;11.176;2022-07-24T14:56:44;41.60;39.00
16402;DHT22;8310;44.626;11.176;2022-07-24T14:59:13;41.50;38.90
16402;DHT22;8310;44.626;11.176;2022-07-24T15:01:42;41.60;39.00
16402;DHT22;8310;44.626;11.176;2022-07-24T15:04:09;41.60;39.00
16402;DHT22;8310;44.626;11.176;2022-07-24T15:06:37;41.60;38.80
16402;DHT22;8310;44.626;11.176;2022-07-24T15:09:04;41.60;38.80
16402;DHT22;8310;44.626;11.176;2022-07-24T15:11:32;41.60;38.80
16402;DHT22;8310;44.626;11.176;2022-07-24T15:13:59;41.60;38.80
16402;DHT22;8310;44.626;11.176;2022-07-24T15:16:28;41.60;38.70
16402;DHT22;8310;44.626;11.176;2022-07-24T15:18:57;41.60;38.60
16402;DHT22;8310;44.626;11.176;2022-07-24T15:21:24;41.60;38.60
16402;DHT22;8310;44.626;11.176;2022-07-24T15:23:52;41.50;38.40
16402;DHT22;8310;44.626;11.176;2022-07-24T15:26:20;41.40;38.40
16402;DHT22;8310;44.626;11.176;2022-07-24T15:28:47;41.40;38.50
16402;DHT22;8310;44.626;11.176;2022-07-24T15:31:14;41.40;38.50
16402;DHT22;8310;44.626;11.176;2022-07-24T15:33:42;41.40;38.50
16402;DHT22;8310;44.626;11.176;2022-07-24T15:36:11;41.40;38.50
16402;DHT22;8310;44.626;11.176;2022-07-24T15:38:39;41.40;38.50
16402;DHT22;8310;44.626;11.176;2022-07-24T15:41:06;41.40;38.40
16402;DHT22;8310;44.626;11.176;2022-07-24T15:43:34;41.40;38.30
16402;DHT22;8310;44.626;11.176;2022-07-24T15:46:02;41.30;38.10